createdAt,value
2017-09-23T00:05:39.689Z,11.40
2017-09-23T00:08:07.270Z,9.90
2017-09-23T00:10:34.829Z,9.97
2017-09-23T00:13:02.438Z,10.53
2017-09-23T00:15:30.022Z,9.33
2017-09-23T00:17:58.149Z,10.17
2017-09-23T00:20:25.754Z,9.97
2017-09-23T00:22:53.317Z,8.53
2017-09-23T00:25:20.914Z,10.37
2017-09-23T00:27:48.501Z,10.30
2017-09-23T00:30:16.086Z,8.63
2017-09-23T00:32:43.653Z,8.67
2017-09-23T00:35:11.281Z,9.23
2017-09-23T00:37:38.881Z,11.90
2017-09-23T00:40:07.245Z,9.33
2017-09-23T00:42:34.866Z,8.73
2017-09-23T00:45:02.433Z,9.03
2017-09-23T00:47:29.988Z,9.10
2017-09-23T00:49:58.249Z,11.97
2017-09-23T00:52:25.854Z,9.97
2017-09-23T00:54:53.449Z,8.33
2017-09-23T00:57:21.105Z,8.50
2017-09-23T00:59:48.749Z,8.53
2017-09-23T01:02:16.347Z,9.60
2017-09-23T01:04:44.013Z,10.07
2017-09-23T01:07:11.605Z,9.70
2017-09-23T01:09:39.247Z,8.87
2017-09-23T01:12:06.905Z,8.47
2017-09-23T01:14:34.783Z,8.40
2017-09-23T01:17:02.366Z,8.70
2017-09-23T01:19:30.013Z,8.87
2017-09-23T01:21:57.622Z,8.63
2017-09-23T01:24:25.253Z,8.93
2017-09-23T01:26:52.901Z,8.70
2017-09-23T01:29:20.525Z,9.00
2017-09-23T01:31:49.034Z,8.83
2017-09-23T01:34:16.617Z,8.77
2017-09-23T01:36:45.017Z,9.00
2017-09-23T01:39:13.369Z,8.43
2017-09-23T01:41:40.965Z,9.10
2017-09-23T01:44:09.318Z,8.77
2017-09-23T01:46:36.877Z,8.23
2017-09-23T01:49:04.485Z,9.33
2017-09-23T01:51:32.045Z,8.70
2017-09-23T01:53:59.625Z,7.97
2017-09-23T01:56:27.210Z,8.93
2017-09-23T01:58:54.765Z,8.00
2017-09-23T02:01:22.348Z,7.80
2017-09-23T02:03:50.067Z,7.93
2017-09-23T02:06:17.629Z,7.93
2017-09-23T02:09:02.242Z,9.10
2017-09-23T02:11:30.513Z,8.43
2017-09-23T02:13:58.862Z,8.43
2017-09-23T02:16:26.481Z,8.83
2017-09-23T02:18:54.032Z,8.50
2017-09-23T02:21:21.605Z,8.07
2017-09-23T02:23:49.995Z,7.53
2017-09-23T02:26:17.559Z,8.27
2017-09-23T02:28:45.757Z,7.93
2017-09-23T02:31:13.882Z,8.27
2017-09-23T02:34:00.067Z,9.17
2017-09-23T02:36:37.684Z,8.77
2017-09-23T02:39:12.541Z,7.50
2017-09-23T02:41:40.158Z,7.90
2017-09-23T02:44:07.753Z,8.20
2017-09-23T02:46:35.306Z,8.17
2017-09-23T02:49:02.909Z,8.10
2017-09-23T02:51:30.465Z,8.77
2017-09-23T02:53:58.017Z,8.20
2017-09-23T02:56:25.609Z,8.00
2017-09-23T02:58:53.166Z,8.63
2017-09-23T03:01:20.729Z,7.40
2017-09-23T03:03:48.309Z,7.07
2017-09-23T03:06:15.889Z,8.30
2017-09-23T03:08:43.482Z,8.30
2017-09-23T03:11:11.098Z,7.80
2017-09-23T03:13:38.657Z,8.00
2017-09-23T03:16:06.213Z,7.77
2017-09-23T03:18:33.821Z,7.50
2017-09-23T03:21:01.380Z,9.30
2017-09-23T03:23:28.965Z,8.23
2017-09-23T03:25:56.581Z,8.33
2017-09-23T03:28:24.165Z,7.30
2017-09-23T03:30:52.491Z,8.07
2017-09-23T03:33:20.082Z,8.10
2017-09-23T03:35:47.641Z,7.63
2017-09-23T03:38:15.221Z,8.83
2017-09-23T03:40:42.858Z,8.20
2017-09-23T03:43:10.449Z,7.47
2017-09-23T03:45:38.722Z,8.37
2017-09-23T03:48:06.517Z,7.17
2017-09-23T03:50:34.073Z,6.57
2017-09-23T03:53:01.629Z,7.73
2017-09-23T03:55:29.214Z,14.10
2017-09-23T03:57:56.769Z,7.93
2017-09-23T04:00:24.329Z,7.10
2017-09-23T04:02:52.545Z,6.97
2017-09-23T04:05:20.102Z,7.70
2017-09-23T04:07:48.477Z,7.10
2017-09-23T04:10:16.065Z,7.30
2017-09-23T04:12:43.617Z,8.20
2017-09-23T04:15:11.209Z,8.20
2017-09-23T04:17:38.854Z,7.63
2017-09-23T04:20:06.441Z,7.80
2017-09-23T04:22:34.073Z,7.67
2017-09-23T04:25:01.693Z,7.17
2017-09-23T04:27:29.818Z,7.50
2017-09-23T04:29:57.381Z,7.43
2017-09-23T04:32:25.097Z,7.23
2017-09-23T04:34:52.653Z,7.30
2017-09-23T04:37:20.215Z,7.90
2017-09-23T04:39:48.294Z,7.80
2017-09-23T04:42:15.870Z,7.30
2017-09-23T04:44:43.457Z,7.70
2017-09-23T04:47:11.042Z,7.30
2017-09-23T04:49:38.621Z,8.70
2017-09-23T04:52:06.182Z,7.23
2017-09-23T04:54:33.777Z,7.60
2017-09-23T04:57:01.362Z,7.47
2017-09-23T04:59:28.924Z,7.10
2017-09-23T05:01:56.530Z,8.37
2017-09-23T05:04:24.085Z,16.50
2017-09-23T05:06:51.665Z,7.63
2017-09-23T05:09:19.277Z,7.27
2017-09-23T05:11:46.977Z,7.20
2017-09-23T05:14:14.553Z,7.30
2017-09-23T05:16:42.141Z,7.70
2017-09-23T05:19:09.718Z,6.90
2017-09-23T05:21:37.317Z,6.80
2017-09-23T05:24:04.933Z,11.23
2017-09-23T05:26:32.497Z,6.60
2017-09-23T05:29:00.081Z,8.37
2017-09-23T05:31:27.700Z,6.63
2017-09-23T05:33:55.289Z,10.98
2017-09-23T05:36:22.885Z,10.80
2017-09-23T05:38:50.473Z,9.07
2017-09-23T05:41:18.053Z,6.60
2017-09-23T05:43:45.633Z,7.50
2017-09-23T05:46:13.245Z,7.17
2017-09-23T05:48:40.829Z,7.93
2017-09-23T05:51:08.410Z,8.57
2017-09-23T05:53:36.013Z,13.10
2017-09-23T05:56:03.577Z,6.87
2017-09-23T05:58:31.141Z,8.53
2017-09-23T06:00:58.751Z,7.27
2017-09-23T06:03:26.385Z,8.10
2017-09-23T06:05:53.980Z,10.80
2017-09-23T06:08:21.593Z,8.47
2017-09-23T06:10:49.148Z,7.93
2017-09-23T06:13:16.744Z,9.50
2017-09-23T06:15:44.333Z,7.33
2017-09-23T06:18:11.938Z,10.87
2017-09-23T06:20:40.285Z,10.27
2017-09-23T06:23:07.902Z,6.80
2017-09-23T06:25:35.521Z,7.40
2017-09-23T06:28:03.089Z,35.47
2017-09-23T06:30:30.733Z,31.73
2017-09-23T06:32:58.325Z,25.07
2017-09-23T06:35:25.889Z,23.23
2017-09-23T06:37:53.474Z,19.73
2017-09-23T06:40:21.034Z,13.23
2017-09-23T06:42:48.621Z,12.30
2017-09-23T06:45:17.822Z,12.20
2017-09-23T06:47:45.417Z,15.13
2017-09-23T06:50:13.042Z,11.53
2017-09-23T06:52:40.657Z,13.60
2017-09-23T06:55:08.231Z,11.20
2017-09-23T06:57:35.813Z,10.90
2017-09-23T07:00:03.496Z,25.47
2017-09-23T07:02:31.094Z,40.70
2017-09-23T07:04:58.702Z,37.07
2017-09-23T07:07:26.319Z,27.03
2017-09-23T07:09:53.901Z,20.20
2017-09-23T07:12:21.490Z,20.60
2017-09-23T07:14:49.305Z,17.57
2017-09-23T07:17:16.874Z,18.30
2017-09-23T07:19:44.457Z,19.03
2017-09-23T07:22:12.085Z,20.80
2017-09-23T07:24:39.714Z,18.73
2017-09-23T07:27:07.350Z,22.03
2017-09-23T07:29:36.174Z,14.90
2017-09-23T07:32:03.741Z,25.63
2017-09-23T07:34:31.347Z,30.90
2017-09-23T07:36:58.965Z,33.60
2017-09-23T07:39:26.598Z,28.57
2017-09-23T07:41:54.186Z,41.07
2017-09-23T07:44:21.805Z,26.30
2017-09-23T07:46:49.373Z,29.70
2017-09-23T07:49:16.938Z,19.67
2017-09-23T07:51:44.529Z,35.20
2017-09-23T07:54:12.161Z,36.23
2017-09-23T07:56:39.753Z,23.33
2017-09-23T07:59:07.364Z,26.27
2017-09-23T08:01:34.931Z,22.30
2017-09-23T08:04:02.521Z,21.97
2017-09-23T08:06:30.224Z,27.73
2017-09-23T08:08:57.842Z,20.30
2017-09-23T08:11:25.433Z,26.20
2017-09-23T08:13:53.033Z,24.07
2017-09-23T08:16:20.690Z,23.83
2017-09-23T08:18:48.951Z,26.43
2017-09-23T08:21:16.569Z,20.67
2017-09-23T08:23:44.139Z,23.33
2017-09-23T08:26:11.705Z,23.30
2017-09-23T08:28:39.293Z,20.50
2017-09-23T08:31:06.880Z,19.20
2017-09-23T08:33:34.444Z,31.00
2017-09-23T08:36:02.825Z,18.60
2017-09-23T08:38:31.186Z,19.67
2017-09-23T08:40:58.749Z,21.23
2017-09-23T08:43:26.382Z,19.07
2017-09-23T08:45:53.973Z,23.77
2017-09-23T08:48:21.541Z,22.93
2017-09-23T08:50:49.133Z,21.70
2017-09-23T08:53:16.950Z,21.77
2017-09-23T08:55:44.509Z,22.27
2017-09-23T08:58:12.130Z,23.40
2017-09-23T09:00:39.721Z,20.77
2017-09-23T09:03:07.293Z,18.53
2017-09-23T09:05:35.250Z,18.90
2017-09-23T09:08:02.834Z,24.37
2017-09-23T09:10:31.071Z,18.30
2017-09-23T09:12:59.563Z,17.87
2017-09-23T09:15:27.158Z,21.20
2017-09-23T09:17:54.725Z,15.87
2017-09-23T09:20:23.105Z,22.20
2017-09-23T09:22:50.665Z,20.47
2017-09-23T09:25:19.390Z,16.00
2017-09-23T09:27:47.217Z,19.47
2017-09-23T09:30:14.777Z,16.90
2017-09-23T09:32:42.365Z,18.70
2017-09-23T09:35:10.053Z,17.10
2017-09-23T09:37:37.609Z,14.83
2017-09-23T09:40:05.173Z,15.30
2017-09-23T09:42:32.789Z,14.73
2017-09-23T09:45:00.353Z,17.53
2017-09-23T09:47:27.938Z,16.63
2017-09-23T09:49:55.553Z,17.53
2017-09-23T09:52:23.188Z,14.97
2017-09-23T09:54:50.781Z,18.97
2017-09-23T09:57:18.396Z,19.83
2017-09-23T09:59:45.985Z,18.33
2017-09-23T10:02:13.553Z,17.97
2017-09-23T10:04:41.321Z,16.60
2017-09-23T10:07:08.889Z,15.90
2017-09-23T10:09:36.477Z,20.07
2017-09-23T10:12:04.334Z,16.63
2017-09-23T10:14:31.925Z,12.60
2017-09-23T10:16:59.521Z,17.93
2017-09-23T10:19:27.485Z,14.33
2017-09-23T10:21:55.077Z,15.57
2017-09-23T10:24:22.665Z,14.93
2017-09-23T10:26:50.346Z,15.97
2017-09-23T10:29:17.933Z,15.50
2017-09-23T10:31:45.509Z,14.67
2017-09-23T10:34:14.073Z,13.37
2017-09-23T10:36:41.642Z,14.40
2017-09-23T10:39:09.237Z,11.80
2017-09-23T10:41:36.846Z,14.27
2017-09-23T10:44:04.450Z,16.47
2017-09-23T10:46:32.083Z,15.50
2017-09-23T10:48:59.717Z,14.33
2017-09-23T10:51:27.297Z,14.70
2017-09-23T10:53:54.889Z,11.40
2017-09-23T10:56:22.515Z,12.17
2017-09-23T10:58:50.114Z,14.20
2017-09-23T11:01:17.969Z,13.37
2017-09-23T11:03:45.589Z,11.63
2017-09-23T11:06:13.161Z,17.23
2017-09-23T11:08:41.506Z,14.43
2017-09-23T11:11:09.129Z,13.50
2017-09-23T11:13:36.693Z,12.27
2017-09-23T11:16:04.257Z,14.50
2017-09-23T11:18:32.185Z,13.60
2017-09-23T11:20:59.752Z,12.67
2017-09-23T11:23:27.348Z,11.30
2017-09-23T11:25:55.093Z,11.10
2017-09-23T11:28:22.683Z,13.73
2017-09-23T11:30:50.257Z,13.97
2017-09-23T11:33:17.917Z,13.27
2017-09-23T11:35:45.578Z,12.03
2017-09-23T11:38:13.145Z,13.30
2017-09-23T11:40:40.770Z,12.43
2017-09-23T11:43:09.058Z,14.10
2017-09-23T11:45:37.331Z,12.60
2017-09-23T11:48:04.958Z,15.93
2017-09-23T11:50:33.289Z,13.70
2017-09-23T11:53:00.882Z,14.13
2017-09-23T11:55:28.673Z,12.87
2017-09-23T11:57:57.091Z,12.00
2017-09-23T12:00:24.661Z,11.93
2017-09-23T12:02:52.290Z,11.33
2017-09-23T12:05:19.854Z,11.17
2017-09-23T12:07:47.674Z,11.73
2017-09-23T12:10:15.277Z,10.83
2017-09-23T12:12:42.869Z,13.80
2017-09-23T12:15:10.471Z,13.10
2017-09-23T12:17:38.320Z,13.80
2017-09-23T12:20:05.880Z,11.77
2017-09-23T12:22:33.438Z,9.67
2017-09-23T12:25:01.063Z,10.80
2017-09-23T12:27:28.626Z,10.30
2017-09-23T12:29:56.209Z,11.83
2017-09-23T12:32:23.806Z,13.40
2017-09-23T12:34:51.390Z,12.93
2017-09-23T12:37:18.952Z,11.80
2017-09-23T12:39:46.608Z,13.70
2017-09-23T12:42:14.177Z,16.03
2017-09-23T12:44:42.326Z,11.27
2017-09-23T12:47:17.818Z,10.60
2017-09-23T12:49:46.497Z,13.53
2017-09-23T12:52:14.093Z,11.00
2017-09-23T12:54:41.690Z,10.43
2017-09-23T12:57:09.246Z,9.13
2017-09-23T12:59:36.805Z,11.17
2017-09-23T13:02:04.637Z,12.63
2017-09-23T13:04:37.642Z,11.77
2017-09-23T13:07:05.994Z,15.03
2017-09-23T13:09:34.416Z,11.60
2017-09-23T13:12:02.031Z,13.27
2017-09-23T13:14:29.581Z,9.83
2017-09-23T13:16:57.196Z,13.87
2017-09-23T13:19:24.785Z,12.50
2017-09-23T13:21:52.379Z,9.63
2017-09-23T13:24:20.009Z,11.27
2017-09-23T13:26:47.569Z,11.40
2017-09-23T13:29:15.206Z,10.80
2017-09-23T13:31:45.805Z,11.57
2017-09-23T13:34:14.761Z,14.43
2017-09-23T13:36:42.358Z,12.20
2017-09-23T13:39:11.016Z,14.60
2017-09-23T13:41:40.308Z,12.53
2017-09-23T13:44:07.998Z,11.33
2017-09-23T13:46:37.569Z,10.57
2017-09-23T13:49:05.670Z,10.57
2017-09-23T13:51:34.098Z,11.03
2017-09-23T13:54:02.069Z,12.13
2017-09-23T13:56:30.447Z,10.33
2017-09-23T13:58:59.448Z,9.30
2017-09-23T14:01:28.420Z,10.20
2017-09-23T14:03:56.545Z,9.80
2017-09-23T14:06:24.761Z,8.93
2017-09-23T14:08:54.545Z,9.90
2017-09-23T14:11:23.280Z,8.73
2017-09-23T14:13:51.733Z,8.33
2017-09-23T14:16:20.924Z,7.87
2017-09-23T14:18:49.455Z,7.77
2017-09-23T14:21:18.217Z,8.60
2017-09-23T14:23:46.918Z,8.90
2017-09-23T14:26:14.927Z,10.33
2017-09-23T14:28:45.663Z,7.40
2017-09-23T14:31:16.709Z,7.00
2017-09-23T14:33:45.313Z,8.07
2017-09-23T14:36:12.959Z,7.70
2017-09-23T14:38:40.914Z,7.40
2017-09-23T14:41:09.778Z,13.70
2017-09-23T14:43:39.285Z,8.23
2017-09-23T14:46:08.204Z,8.30
2017-09-23T14:48:35.769Z,7.53
2017-09-23T14:51:03.325Z,6.70
2017-09-23T14:53:30.913Z,7.43
2017-09-23T14:55:58.497Z,6.83
2017-09-23T14:58:26.164Z,6.60
2017-09-23T15:00:54.739Z,9.77
2017-09-23T15:03:22.331Z,6.70
2017-09-23T15:05:49.917Z,5.60
2017-09-23T15:08:17.961Z,11.20
2017-09-23T15:10:45.518Z,5.67
2017-09-23T15:13:13.929Z,7.43
2017-09-23T15:15:41.586Z,8.63
2017-09-23T15:18:09.149Z,6.30
2017-09-23T15:20:36.746Z,6.17
2017-09-23T15:23:05.038Z,7.60
2017-09-23T15:25:32.698Z,8.73
2017-09-23T15:28:00.337Z,5.97
2017-09-23T15:30:28.079Z,7.93
2017-09-23T15:32:55.632Z,7.27
2017-09-23T15:35:23.678Z,6.27
2017-09-23T15:37:51.285Z,6.53
2017-09-23T15:40:18.893Z,5.90
2017-09-23T15:42:46.446Z,7.00
2017-09-23T15:45:14.066Z,6.10
2017-09-23T15:47:41.653Z,5.87
2017-09-23T15:50:09.213Z,8.03
2017-09-23T15:52:36.817Z,8.00
2017-09-23T15:55:04.409Z,10.13
2017-09-23T15:57:31.975Z,9.47
2017-09-23T15:59:59.737Z,12.93
2017-09-23T16:02:27.374Z,9.47
2017-09-23T16:04:55.002Z,15.40
2017-09-23T16:07:22.657Z,20.67
2017-09-23T16:09:50.281Z,12.50
2017-09-23T16:12:17.914Z,16.30
2017-09-23T16:14:45.537Z,17.37
2017-09-23T16:17:13.506Z,13.73
2017-09-23T16:19:41.068Z,10.00
2017-09-23T16:22:08.713Z,11.17
2017-09-23T16:24:36.348Z,9.87
2017-09-23T16:27:03.969Z,11.57
2017-09-23T16:29:31.591Z,13.23
2017-09-23T16:31:59.304Z,8.10
2017-09-23T16:34:26.897Z,9.23
2017-09-23T16:36:55.257Z,6.83
2017-09-23T16:39:23.583Z,9.90
2017-09-23T16:41:51.147Z,11.10
2017-09-23T16:44:19.483Z,11.90
2017-09-23T16:46:47.045Z,11.83
2017-09-23T16:49:14.602Z,7.97
2017-09-23T16:51:42.977Z,10.50
2017-09-23T16:54:10.549Z,8.23
2017-09-23T16:56:38.113Z,10.40
2017-09-23T16:59:05.726Z,13.03
2017-09-23T17:01:33.291Z,8.77
2017-09-23T17:04:00.854Z,8.40
2017-09-23T17:06:28.471Z,10.40
2017-09-23T17:08:56.058Z,6.30
2017-09-23T17:11:23.646Z,6.73
2017-09-23T17:13:51.241Z,6.60
2017-09-23T17:16:18.830Z,9.60
2017-09-23T17:18:46.418Z,8.90
2017-09-23T17:21:14.381Z,8.90
2017-09-23T17:23:41.945Z,9.70
2017-09-23T17:26:09.507Z,9.70
2017-09-23T17:28:37.127Z,10.80
2017-09-23T17:31:04.710Z,7.60
2017-09-23T17:33:32.294Z,8.90
2017-09-23T17:35:59.882Z,8.27
2017-09-23T17:38:28.462Z,6.30
2017-09-23T17:40:56.042Z,6.50
2017-09-23T17:43:23.874Z,7.30
2017-09-23T17:45:51.454Z,7.10
2017-09-23T17:48:19.041Z,7.00
2017-09-23T17:50:46.966Z,9.20
2017-09-23T17:53:15.418Z,8.33
2017-09-23T17:55:43.006Z,6.03
2017-09-23T17:58:11.329Z,6.60
2017-09-23T18:00:43.058Z,7.17
2017-09-23T18:03:11.579Z,10.43
2017-09-23T18:05:39.850Z,8.40
2017-09-23T18:08:07.506Z,8.93
2017-09-23T18:10:35.076Z,6.27
2017-09-23T18:13:03.269Z,6.77
2017-09-23T18:15:30.833Z,7.20
2017-09-23T18:17:58.422Z,7.10
2017-09-23T18:20:27.179Z,7.60
2017-09-23T18:22:55.534Z,9.27
2017-09-23T18:25:26.559Z,7.50
2017-09-23T18:28:01.379Z,6.97
2017-09-23T18:30:28.957Z,7.30
2017-09-23T18:32:56.542Z,8.13
2017-09-23T18:35:24.717Z,8.73
2017-09-23T18:37:52.278Z,7.83
2017-09-23T18:40:20.081Z,13.20
2017-09-23T18:42:48.141Z,7.23
2017-09-23T18:45:15.746Z,8.50
2017-09-23T18:47:43.366Z,6.20
2017-09-23T18:50:12.510Z,8.37
2017-09-23T18:52:40.173Z,11.17
2017-09-23T18:55:07.748Z,6.40
2017-09-23T18:57:35.673Z,7.13
2017-09-23T19:00:03.326Z,6.40
2017-09-23T19:02:31.029Z,10.20
2017-09-23T19:04:58.865Z,6.20
2017-09-23T19:07:26.446Z,6.63
2017-09-23T19:09:57.484Z,10.97
2017-09-23T19:12:26.002Z,10.37
2017-09-23T19:14:53.565Z,5.67
2017-09-23T19:17:21.151Z,6.60
2017-09-23T19:19:49.360Z,6.97
2017-09-23T19:22:16.978Z,6.43
2017-09-23T19:24:44.567Z,6.43
2017-09-23T19:27:12.158Z,6.00
2017-09-23T19:29:39.719Z,8.90
2017-09-23T19:32:07.738Z,7.27
2017-09-23T19:34:35.359Z,6.27
2017-09-23T19:37:02.951Z,8.73
2017-09-23T19:39:30.540Z,7.43
2017-09-23T19:41:58.162Z,11.53
2017-09-23T19:44:25.750Z,7.13
2017-09-23T19:46:53.309Z,9.13
2017-09-23T19:49:20.898Z,8.23
2017-09-23T19:51:48.454Z,8.70
2017-09-23T19:54:16.034Z,6.43
2017-09-23T19:56:44.113Z,6.90
2017-09-23T19:59:11.697Z,8.33
2017-09-23T20:01:39.283Z,5.90
2017-09-23T20:04:06.902Z,9.20
2017-09-23T20:06:34.481Z,5.87
2017-09-23T20:09:02.047Z,5.90
2017-09-23T20:11:29.976Z,5.80
2017-09-23T20:13:57.540Z,6.97
2017-09-23T20:16:25.131Z,10.20
2017-09-23T20:18:52.745Z,6.00
2017-09-23T20:21:20.335Z,8.47
2017-09-23T20:23:47.901Z,5.17
2017-09-23T20:26:16.169Z,7.10
2017-09-23T20:28:43.754Z,6.93
2017-09-23T20:31:11.314Z,6.43
2017-09-23T20:33:39.112Z,5.90
2017-09-23T20:36:06.693Z,6.93
2017-09-23T20:38:34.285Z,6.17
2017-09-23T20:41:01.902Z,6.23
2017-09-23T20:43:29.469Z,6.50
2017-09-23T20:45:57.050Z,7.97
2017-09-23T20:48:24.897Z,6.90
2017-09-23T20:50:52.466Z,7.30
2017-09-23T20:53:20.057Z,8.17
2017-09-23T20:55:47.672Z,9.00
2017-09-23T20:58:15.260Z,6.70
2017-09-23T21:00:42.846Z,6.27
2017-09-23T21:03:10.466Z,13.10
2017-09-23T21:05:38.032Z,11.67
2017-09-23T21:08:05.660Z,7.10
2017-09-23T21:10:33.293Z,7.97
2017-09-23T21:13:00.829Z,6.67
2017-09-23T21:15:28.382Z,6.10
2017-09-23T21:18:02.090Z,6.10
2017-09-23T21:20:30.126Z,5.93
2017-09-23T21:22:57.664Z,7.00
2017-09-23T21:25:33.704Z,8.70
2017-09-23T21:31:23.668Z,6.73
2017-09-23T21:34:07.874Z,7.03
2017-09-23T21:36:36.092Z,7.17
2017-09-23T21:39:03.703Z,7.07
2017-09-23T21:41:31.225Z,7.50
2017-09-23T21:44:00.288Z,10.10
2017-09-23T21:46:27.818Z,6.90
2017-09-23T21:48:55.345Z,8.23
2017-09-23T21:51:22.898Z,6.70
2017-09-23T21:53:50.428Z,7.30
2017-09-23T21:56:17.953Z,7.23
2017-09-23T21:58:45.535Z,7.00
2017-09-23T22:01:13.438Z,7.27
2017-09-23T22:03:40.969Z,8.07
2017-09-23T22:06:08.546Z,8.03
2017-09-23T22:08:36.075Z,7.70
2017-09-23T22:11:03.601Z,8.77
2017-09-23T22:13:31.165Z,6.77
2017-09-23T22:15:58.693Z,6.37
2017-09-23T22:18:27.865Z,6.43
2017-09-23T22:20:55.418Z,8.13
2017-09-23T22:23:22.949Z,6.37
2017-09-23T22:25:50.478Z,6.10
2017-09-23T22:28:18.494Z,9.20
2017-09-23T22:30:46.021Z,8.10
2017-09-23T22:33:13.554Z,8.97
2017-09-23T22:35:41.113Z,7.33
2017-09-23T22:38:08.637Z,6.70
2017-09-23T22:40:36.162Z,7.50
2017-09-23T22:43:03.721Z,6.53
2017-09-23T22:45:31.258Z,6.60
2017-09-23T22:47:59.650Z,8.53
2017-09-23T22:50:28.167Z,6.77
2017-09-23T22:52:56.497Z,7.60
2017-09-23T22:55:24.098Z,7.73
2017-09-23T22:57:51.649Z,6.27
2017-09-23T23:00:20.066Z,7.30
2017-09-23T23:02:47.598Z,7.53
2017-09-23T23:05:15.973Z,6.47
2017-09-23T23:07:43.497Z,6.60
2017-09-23T23:10:11.790Z,6.70
2017-09-23T23:12:39.349Z,7.53
2017-09-23T23:15:06.879Z,6.87
2017-09-23T23:17:35.170Z,7.30
2017-09-23T23:20:02.732Z,6.27
2017-09-23T23:22:30.266Z,6.93
2017-09-23T23:24:57.798Z,6.20
2017-09-23T23:27:25.993Z,6.87
2017-09-23T23:29:53.517Z,7.63
2017-09-23T23:32:21.040Z,7.50
2017-09-23T23:34:48.597Z,7.77
2017-09-23T23:37:17.014Z,6.77
2017-09-23T23:39:44.537Z,8.00
2017-09-23T23:42:12.458Z,5.70
2017-09-23T23:44:39.988Z,12.10
2017-09-23T23:47:07.514Z,10.93
2017-09-23T23:49:35.157Z,9.60
2017-09-23T23:52:02.693Z,6.87
2017-09-23T23:54:30.218Z,6.87
2017-09-23T23:56:57.769Z,8.07
2017-09-23T23:59:25.293Z,7.10
